createdAt,value
2018-01-21T00:01:07.315Z,94.67
2018-01-21T00:02:30.421Z,94.87
2018-01-21T00:04:01.510Z,94.82
2018-01-21T00:05:28.688Z,94.86
2018-01-21T00:06:51.803Z,94.97
2018-01-21T00:08:18.966Z,95.05
2018-01-21T00:09:50.014Z,95.06
2018-01-21T00:11:17.304Z,94.94
2018-01-21T00:12:40.493Z,94.72
2018-01-21T00:14:11.581Z,94.85
2018-01-21T00:15:34.624Z,94.98
2018-01-21T00:17:05.593Z,95.04
2018-01-21T00:18:28.778Z,94.83
2018-01-21T00:19:59.902Z,94.76
2018-01-21T00:21:23.175Z,94.76
2018-01-21T00:22:54.405Z,94.73
2018-01-21T00:24:21.486Z,94.63
2018-01-21T00:25:48.246Z,94.80
2018-01-21T00:27:11.506Z,94.68
2018-01-21T00:28:42.547Z,94.72
2018-01-21T00:30:09.581Z,94.93
2018-01-21T00:31:36.563Z,95.09
2018-01-21T00:32:59.654Z,95.14
2018-01-21T00:34:30.590Z,95.17
2018-01-21T00:35:57.522Z,95.22
2018-01-21T00:37:20.634Z,95.46
2018-01-21T00:38:47.796Z,95.44
2018-01-21T00:40:18.926Z,95.38
2018-01-21T00:41:46.077Z,95.24
2018-01-21T00:43:13.146Z,95.23
2018-01-21T00:44:39.954Z,95.17
2018-01-21T00:46:07.020Z,95.17
2018-01-21T00:47:30.142Z,95.24
2018-01-21T00:49:01.259Z,95.35
2018-01-21T00:50:23.936Z,95.11
2018-01-21T00:51:50.973Z,94.74
2018-01-21T00:53:18.175Z,94.54
2018-01-21T00:54:45.385Z,94.22
2018-01-21T00:56:12.388Z,94.09
2018-01-21T00:57:43.626Z,94.26
2018-01-21T00:59:06.738Z,94.17
2018-01-21T01:00:37.701Z,93.96
2018-01-21T01:02:00.865Z,94.28
2018-01-21T01:03:31.955Z,94.48
2018-01-21T01:04:58.986Z,94.61
2018-01-21T01:06:26.342Z,94.93
2018-01-21T01:07:53.335Z,94.90
2018-01-21T01:09:16.394Z,94.41
2018-01-21T01:10:47.422Z,93.98
2018-01-21T01:12:14.601Z,93.82
2018-01-21T01:13:41.804Z,93.99
2018-01-21T01:15:04.892Z,94.07
2018-01-21T01:16:31.921Z,93.81
2018-01-21T01:18:03.120Z,94.00
2018-01-21T01:19:30.109Z,94.26
2018-01-21T01:20:57.311Z,94.38
2018-01-21T01:22:24.191Z,94.21
2018-01-21T01:23:47.448Z,94.08
2018-01-21T01:25:18.474Z,94.05
2018-01-21T01:26:45.454Z,94.00
2018-01-21T01:28:08.427Z,94.18
2018-01-21T01:29:35.702Z,94.21
2018-01-21T01:31:06.745Z,94.08
2018-01-21T01:32:29.801Z,94.11
2018-01-21T01:33:56.825Z,94.15
2018-01-21T01:35:27.759Z,94.12
2018-01-21T01:36:50.935Z,94.21
2018-01-21T01:38:22.107Z,94.27
2018-01-21T01:39:45.256Z,94.48
2018-01-21T01:41:16.458Z,94.37
2018-01-21T01:42:43.447Z,94.25
2018-01-21T01:44:06.582Z,94.09
2018-01-21T01:45:33.749Z,93.73
2018-01-21T01:47:00.963Z,93.60
2018-01-21T01:48:28.066Z,93.88
2018-01-21T01:49:59.098Z,93.95
2018-01-21T01:51:26.264Z,93.92
2018-01-21T01:52:53.409Z,94.10
2018-01-21T01:54:20.550Z,94.17
2018-01-21T01:55:47.498Z,94.14
2018-01-21T01:57:10.558Z,94.28
2018-01-21T01:58:37.764Z,94.17
2018-01-21T02:00:08.982Z,94.06
2018-01-21T02:01:32.081Z,94.27
2018-01-21T02:02:59.141Z,94.17
2018-01-21T02:04:29.987Z,94.31
2018-01-21T02:05:57.078Z,94.29
2018-01-21T02:07:24.284Z,94.27
2018-01-21T02:08:47.411Z,94.44
2018-01-21T02:10:18.696Z,94.49
2018-01-21T02:11:45.887Z,94.50
2018-01-21T02:13:12.842Z,94.73
2018-01-21T02:14:35.946Z,94.86
2018-01-21T02:16:07.185Z,94.82
2018-01-21T02:17:34.238Z,94.81
2018-01-21T02:19:01.402Z,95.06
2018-01-21T02:20:24.491Z,95.12
2018-01-21T02:21:51.625Z,95.00
2018-01-21T02:23:22.686Z,94.70
2018-01-21T02:24:48.303Z,94.73
2018-01-21T02:26:17.145Z,95.00
2018-01-21T02:27:40.015Z,95.00
2018-01-21T02:29:07.274Z,95.06
2018-01-21T02:30:38.256Z,95.07
2018-01-21T02:32:05.330Z,95.22
2018-01-21T02:33:32.245Z,95.27
2018-01-21T02:34:59.268Z,95.38
2018-01-21T02:36:26.454Z,95.36
2018-01-21T02:37:53.626Z,95.39
2018-01-21T02:39:20.766Z,95.29
2018-01-21T02:40:43.915Z,95.22
2018-01-21T02:42:15.142Z,94.84
2018-01-21T02:43:38.216Z,94.64
2018-01-21T02:45:05.267Z,94.39
2018-01-21T02:46:32.347Z,94.24
2018-01-21T02:47:59.419Z,94.36
2018-01-21T02:49:26.580Z,94.22
2018-01-21T02:50:57.277Z,94.30
2018-01-21T02:52:24.434Z,94.43
2018-01-21T02:53:47.335Z,94.68
2018-01-21T02:55:18.478Z,94.59
2018-01-21T02:56:45.511Z,94.57
2018-01-21T02:58:08.723Z,94.43
2018-01-21T02:59:39.854Z,94.51
2018-01-21T03:01:02.993Z,94.50
2018-01-21T03:02:34.125Z,94.28
2018-01-21T03:03:57.301Z,94.09
2018-01-21T03:05:24.101Z,93.91
2018-01-21T03:06:51.409Z,93.72
2018-01-21T03:08:22.682Z,93.42
2018-01-21T03:09:45.742Z,93.42
2018-01-21T03:11:16.920Z,93.35
2018-01-21T03:12:43.951Z,93.25
2018-01-21T03:14:07.102Z,93.08
2018-01-21T03:15:34.184Z,92.76
2018-01-21T03:17:01.458Z,92.66
2018-01-21T03:18:28.711Z,92.66
2018-01-21T03:19:55.829Z,92.82
2018-01-21T03:21:26.956Z,92.96
2018-01-21T03:22:53.833Z,92.81
2018-01-21T03:24:20.650Z,92.72
2018-01-21T03:25:43.675Z,92.78
2018-01-21T03:27:14.935Z,92.76
2018-01-21T03:28:38.175Z,92.68
2018-01-21T03:30:05.456Z,92.48
2018-01-21T03:31:32.696Z,92.34
2018-01-21T03:33:03.730Z,92.31
2018-01-21T03:34:26.494Z,92.31
2018-01-21T03:35:53.840Z,92.35
2018-01-21T03:37:20.888Z,92.48
2018-01-21T03:38:48.182Z,92.51
2018-01-21T03:40:19.245Z,92.28
2018-01-21T03:41:46.531Z,92.06
2018-01-21T03:43:13.501Z,91.84
2018-01-21T03:44:40.340Z,92.10
2018-01-21T03:46:07.475Z,92.33
2018-01-21T03:47:34.383Z,92.41
2018-01-21T03:49:01.544Z,92.19
2018-01-21T03:50:28.509Z,92.26
2018-01-21T03:51:55.707Z,92.13
2018-01-21T03:53:18.872Z,92.14
2018-01-21T03:54:50.157Z,92.44
2018-01-21T03:56:13.367Z,92.77
2018-01-21T03:57:44.419Z,93.23
2018-01-21T03:59:07.643Z,93.62
2018-01-21T04:00:35.001Z,93.83
2018-01-21T04:02:06.141Z,93.92
2018-01-21T04:03:33.096Z,94.05
2018-01-21T04:05:01.103Z,94.25
2018-01-21T04:06:23.163Z,94.58
2018-01-21T04:07:50.039Z,94.73
2018-01-21T04:09:21.184Z,94.91
2018-01-21T04:10:44.108Z,94.98
2018-01-21T04:12:15.349Z,95.13
2018-01-21T04:13:42.481Z,95.27
2018-01-21T04:15:05.779Z,95.40
2018-01-21T04:16:32.938Z,95.55
2018-01-21T04:18:03.949Z,95.86
2018-01-21T04:19:30.912Z,96.04
2018-01-21T04:20:57.862Z,96.20
2018-01-21T04:22:20.867Z,96.30
2018-01-21T04:23:51.954Z,96.18
2018-01-21T04:25:14.934Z,96.21
2018-01-21T04:26:41.995Z,96.22
2018-01-21T04:28:09.005Z,96.25
2018-01-21T04:29:36.179Z,96.27
2018-01-21T04:32:29.935Z,96.33
2018-01-21T04:33:56.986Z,96.20
2018-01-21T04:35:27.808Z,96.20
2018-01-21T04:36:50.723Z,96.26
2018-01-21T04:38:21.969Z,96.52
2018-01-21T04:39:49.169Z,96.67
2018-01-21T04:41:12.574Z,96.56
2018-01-21T04:42:39.801Z,96.41
2018-01-21T04:44:10.932Z,96.56
2018-01-21T04:45:34.126Z,96.53
2018-01-21T04:47:01.141Z,96.54
2018-01-21T04:48:32.003Z,96.44
2018-01-21T04:49:58.910Z,96.20
2018-01-21T04:51:26.213Z,96.22
2018-01-21T04:52:53.365Z,96.00
2018-01-21T04:54:20.540Z,96.02
2018-01-21T04:55:47.389Z,96.06
2018-01-21T04:57:10.512Z,95.79
2018-01-21T04:58:37.754Z,95.66
2018-01-21T05:00:08.819Z,95.58
2018-01-21T05:01:31.892Z,95.51
2018-01-21T05:03:02.891Z,95.18
2018-01-21T05:04:29.990Z,94.97
2018-01-21T05:05:53.247Z,94.58
2018-01-21T05:07:24.248Z,93.55
2018-01-21T05:08:51.381Z,94.08
2018-01-21T05:10:14.566Z,94.06
2018-01-21T05:11:41.555Z,93.33
2018-01-21T05:13:12.727Z,94.04
2018-01-21T05:14:35.494Z,94.18
2018-01-21T05:16:02.722Z,94.32
2018-01-21T05:17:33.782Z,94.35
2018-01-21T05:18:56.809Z,94.86
2018-01-21T05:20:27.628Z,94.98
2018-01-21T05:21:50.884Z,95.07
2018-01-21T05:23:21.938Z,94.94
2018-01-21T05:24:49.084Z,94.68
2018-01-21T05:26:12.389Z,94.19
2018-01-21T05:27:39.488Z,93.84
2018-01-21T05:29:10.488Z,93.79
2018-01-21T05:30:33.381Z,93.71
2018-01-21T05:32:04.441Z,93.98
2018-01-21T05:33:27.450Z,94.09
2018-01-21T05:34:54.107Z,94.19
2018-01-21T05:36:21.168Z,94.32
2018-01-21T05:37:47.863Z,94.36
2018-01-21T05:39:18.967Z,94.78
2018-01-21T05:40:46.094Z,95.06
2018-01-21T05:42:09.262Z,94.61
2018-01-21T05:43:40.207Z,94.44
2018-01-21T05:45:07.197Z,94.93
2018-01-21T05:46:33.848Z,95.67
2018-01-21T05:47:56.846Z,95.61
2018-01-21T05:49:23.560Z,95.34
2018-01-21T05:50:50.708Z,94.98
2018-01-21T05:52:21.968Z,95.54
2018-01-21T05:53:49.222Z,96.09
2018-01-21T05:55:16.184Z,96.03
2018-01-21T05:56:39.078Z,95.70
2018-01-21T05:58:10.369Z,95.11
2018-01-21T05:59:37.363Z,95.45
2018-01-21T06:01:00.500Z,95.73
2018-01-21T06:02:31.467Z,96.04
2018-01-21T06:03:54.322Z,95.90
2018-01-21T06:05:25.056Z,95.86
2018-01-21T06:06:48.078Z,95.85
2018-01-21T06:08:18.924Z,95.56
2018-01-21T06:09:45.924Z,95.27
2018-01-21T06:11:12.753Z,95.04
2018-01-21T06:12:39.743Z,95.44
2018-01-21T06:14:06.779Z,95.93
2018-01-21T06:15:33.940Z,95.59
2018-01-21T06:16:57.047Z,95.54
2018-01-21T06:18:23.848Z,96.02
2018-01-21T06:19:55.040Z,95.78
2018-01-21T06:21:22.127Z,95.88
2018-01-21T06:22:49.243Z,96.32
2018-01-21T06:24:16.294Z,96.52
2018-01-21T06:25:39.368Z,96.80
2018-01-21T06:27:10.546Z,96.87
2018-01-21T06:28:33.530Z,97.03
2018-01-21T06:30:00.631Z,97.00
2018-01-21T06:31:31.613Z,97.06
2018-01-21T06:32:54.565Z,97.04
2018-01-21T06:34:25.618Z,97.24
2018-01-21T06:35:48.946Z,97.47
2018-01-21T06:37:20.055Z,97.50
2018-01-21T06:38:43.391Z,97.29
2018-01-21T06:40:10.536Z,97.17
2018-01-21T06:41:37.676Z,97.22
2018-01-21T06:43:08.446Z,97.38
2018-01-21T06:44:35.385Z,97.39
2018-01-21T06:45:58.490Z,97.32
2018-01-21T06:47:25.506Z,97.47
2018-01-21T06:48:56.199Z,97.67
2018-01-21T06:50:19.432Z,97.55
2018-01-21T06:51:50.551Z,97.62
2018-01-21T06:53:13.512Z,97.63
2018-01-21T06:54:44.585Z,97.71
2018-01-21T06:56:07.676Z,97.65
2018-01-21T06:57:34.793Z,97.86
2018-01-21T06:59:01.773Z,97.88
2018-01-21T07:00:28.642Z,98.04
2018-01-21T07:01:55.706Z,97.89
2018-01-21T07:03:22.875Z,97.92
2018-01-21T07:04:53.955Z,97.89
2018-01-21T07:06:21.000Z,97.89
2018-01-21T07:07:47.809Z,97.93
2018-01-21T07:09:10.986Z,97.92
2018-01-21T07:10:42.307Z,97.92
2018-01-21T07:12:05.181Z,97.87
2018-01-21T07:13:36.290Z,97.84
2018-01-21T07:14:59.457Z,97.75
2018-01-21T07:16:30.488Z,97.72
2018-01-21T07:17:57.687Z,97.71
2018-01-21T07:19:20.884Z,97.82
2018-01-21T07:20:47.909Z,97.83
2018-01-21T07:22:18.913Z,97.78
2018-01-21T07:23:42.134Z,97.84
2018-01-21T07:25:08.849Z,98.00
2018-01-21T07:26:35.946Z,97.98
2018-01-21T07:28:03.140Z,97.83
2018-01-21T07:29:30.074Z,97.88
2018-01-21T07:31:01.046Z,97.76
2018-01-21T07:32:24.102Z,97.82
2018-01-21T07:33:55.257Z,97.93
2018-01-21T07:35:18.363Z,97.92
2018-01-21T07:36:49.398Z,97.98
2018-01-21T07:38:16.286Z,98.00
2018-01-21T07:39:43.348Z,98.13
2018-01-21T07:41:10.273Z,98.32
2018-01-21T07:42:37.353Z,97.68
2018-01-21T07:44:04.003Z,97.87
2018-01-21T07:45:31.178Z,97.60
2018-01-21T07:46:58.281Z,97.78
2018-01-21T07:48:25.362Z,98.01
2018-01-21T07:49:52.364Z,97.87
2018-01-21T07:51:15.917Z,98.03
2018-01-21T07:52:43.045Z,98.08
2018-01-21T07:54:14.221Z,97.95
2018-01-21T07:55:41.112Z,97.74
2018-01-21T07:57:07.846Z,97.49
2018-01-21T07:58:35.060Z,97.75
2018-01-21T08:00:02.169Z,97.89
2018-01-21T08:01:29.180Z,97.87
2018-01-21T08:02:56.303Z,97.12
2018-01-21T08:04:19.624Z,96.62
2018-01-21T08:05:50.766Z,97.33
2018-01-21T08:07:17.928Z,97.14
2018-01-21T08:08:40.980Z,97.06
2018-01-21T08:10:11.806Z,97.16
2018-01-21T08:11:38.404Z,96.82
2018-01-21T08:13:01.346Z,96.45
2018-01-21T08:14:28.562Z,96.42
2018-01-21T08:15:55.715Z,95.67
2018-01-21T08:17:22.766Z,95.29
2018-01-21T08:18:50.051Z,95.93
2018-01-21T08:20:17.297Z,95.96
2018-01-21T08:21:48.412Z,96.02
2018-01-21T08:23:15.466Z,95.43
2018-01-21T08:24:42.598Z,94.94
2018-01-21T08:26:09.823Z,95.64
2018-01-21T08:27:33.102Z,95.71
2018-01-21T08:29:04.283Z,95.72
2018-01-21T08:30:27.377Z,95.97
2018-01-21T08:31:54.270Z,95.81
2018-01-21T08:33:21.519Z,95.86
2018-01-21T08:34:48.719Z,96.42
2018-01-21T08:36:15.695Z,96.22
2018-01-21T08:37:46.445Z,95.81
2018-01-21T08:39:09.566Z,95.52
2018-01-21T08:40:40.492Z,95.55
2018-01-21T08:42:07.545Z,95.91
2018-01-21T08:43:35.066Z,95.75
2018-01-21T08:44:58.100Z,95.72
2018-01-21T08:46:25.197Z,95.59
2018-01-21T08:47:56.129Z,95.07
2018-01-21T08:49:22.941Z,95.02
2018-01-21T08:50:46.119Z,95.21
2018-01-21T08:52:13.067Z,95.65
2018-01-21T08:53:40.126Z,96.19
2018-01-21T08:55:11.151Z,95.98
2018-01-21T08:56:38.230Z,95.63
2018-01-21T08:58:01.453Z,96.04
2018-01-21T08:59:28.570Z,96.24
2018-01-21T09:00:59.621Z,96.34
2018-01-21T09:02:22.720Z,96.35
2018-01-21T09:03:53.887Z,96.19
2018-01-21T09:05:16.920Z,96.21
2018-01-21T09:06:44.051Z,96.32
2018-01-21T09:08:15.134Z,96.58
2018-01-21T09:09:38.265Z,96.39
2018-01-21T09:11:09.362Z,96.76
2018-01-21T09:12:32.605Z,96.84
2018-01-21T09:13:59.841Z,96.36
2018-01-21T09:15:30.843Z,96.00
2018-01-21T09:16:57.687Z,95.88
2018-01-21T09:18:20.797Z,95.00
2018-01-21T09:19:48.013Z,95.34
2018-01-21T09:21:15.296Z,95.48
2018-01-21T09:22:46.407Z,94.80
2018-01-21T09:24:09.790Z,95.13
2018-01-21T09:25:36.891Z,95.13
2018-01-21T09:27:07.500Z,94.79
2018-01-21T09:28:30.600Z,95.32
2018-01-21T09:30:01.805Z,95.79
2018-01-21T09:31:24.510Z,95.58
2018-01-21T09:32:55.571Z,95.96
2018-01-21T09:34:18.410Z,96.04
2018-01-21T09:35:49.470Z,96.20
2018-01-21T09:37:16.686Z,95.68
2018-01-21T09:38:43.522Z,94.69
2018-01-21T09:40:06.344Z,94.92
2018-01-21T09:41:33.498Z,95.18
2018-01-21T09:43:00.559Z,95.49
2018-01-21T09:44:31.561Z,94.86
2018-01-21T09:45:58.530Z,95.15
2018-01-21T09:47:25.908Z,95.29
2018-01-21T09:48:48.898Z,95.50
2018-01-21T09:50:20.035Z,95.34
2018-01-21T09:51:43.144Z,95.15
2018-01-21T09:53:10.204Z,95.58
2018-01-21T09:54:36.983Z,95.97
2018-01-21T09:56:04.231Z,95.80
2018-01-21T09:57:31.316Z,95.70
2018-01-21T09:58:58.366Z,95.82
2018-01-21T10:00:29.062Z,96.03
2018-01-21T10:01:56.233Z,96.25
2018-01-21T10:03:23.274Z,95.85
2018-01-21T10:04:50.474Z,95.96
2018-01-21T10:06:17.221Z,96.23
2018-01-21T10:07:40.388Z,96.18
2018-01-21T10:09:11.203Z,96.27
2018-01-21T10:10:34.374Z,96.49
2018-01-21T10:12:05.489Z,96.72
2018-01-21T10:13:28.470Z,95.94
2018-01-21T10:14:55.342Z,95.66
2018-01-21T10:16:22.080Z,95.30
2018-01-21T10:17:53.353Z,95.06
2018-01-21T10:19:16.189Z,95.15
2018-01-21T10:20:42.944Z,95.47
2018-01-21T10:22:14.108Z,95.25
2018-01-21T10:23:37.201Z,95.17
2018-01-21T10:25:04.190Z,95.01
2018-01-21T10:26:35.540Z,95.57
2018-01-21T10:27:58.722Z,95.60
2018-01-21T10:29:29.414Z,95.65
2018-01-21T10:30:56.570Z,95.48
2018-01-21T10:32:23.738Z,94.93
2018-01-21T10:33:50.613Z,94.31
2018-01-21T10:35:17.570Z,93.92
2018-01-21T10:36:44.853Z,93.33
2018-01-21T10:38:08.047Z,93.54
2018-01-21T10:39:39.280Z,93.68
2018-01-21T10:41:06.418Z,92.94
2018-01-21T10:42:29.554Z,92.66
2018-01-21T10:43:56.558Z,93.00
2018-01-21T10:45:23.736Z,93.00
2018-01-21T10:46:55.054Z,92.63
2018-01-21T10:48:18.246Z,92.93
2018-01-21T10:49:45.306Z,92.92
2018-01-21T10:51:16.511Z,92.39
2018-01-21T10:52:39.842Z,92.17
2018-01-21T10:54:06.876Z,91.78
2018-01-21T10:55:38.074Z,91.29
2018-01-21T10:57:01.338Z,91.09
2018-01-21T10:58:32.290Z,91.02
2018-01-21T10:59:55.156Z,91.16
2018-01-21T11:01:22.296Z,91.34
2018-01-21T11:02:53.334Z,91.49
2018-01-21T11:04:16.460Z,91.59
2018-01-21T11:05:43.309Z,92.14
2018-01-21T11:07:14.385Z,92.66
2018-01-21T11:08:41.419Z,92.92
2018-01-21T11:10:04.612Z,92.47
2018-01-21T11:11:31.587Z,92.28
2018-01-21T11:12:58.602Z,92.88
2018-01-21T11:14:29.704Z,93.12
2018-01-21T11:15:56.902Z,92.37
2018-01-21T11:17:19.970Z,92.62
2018-01-21T11:18:47.282Z,92.77
2018-01-21T11:20:14.406Z,92.74
2018-01-21T11:21:41.493Z,91.87
2018-01-21T11:23:08.673Z,91.01
2018-01-21T11:24:35.954Z,91.56
2018-01-21T11:26:03.282Z,92.31
2018-01-21T11:27:30.235Z,92.89
2018-01-21T11:29:01.529Z,92.98
2018-01-21T11:30:24.677Z,92.75
2018-01-21T11:31:55.720Z,91.96
2018-01-21T11:33:18.842Z,91.82
2018-01-21T11:34:46.016Z,91.90
2018-01-21T11:36:13.319Z,91.67
2018-01-21T11:37:44.514Z,91.22
2018-01-21T11:39:07.661Z,90.75
2018-01-21T11:40:38.765Z,91.28
2018-01-21T11:42:05.985Z,91.61
2018-01-21T11:43:33.098Z,91.76
2018-01-21T11:44:56.085Z,91.65
2018-01-21T11:46:27.329Z,91.33
2018-01-21T11:47:50.594Z,90.70
2018-01-21T11:49:21.848Z,90.62
2018-01-21T11:50:45.105Z,90.32
2018-01-21T11:52:12.311Z,90.64
2018-01-21T11:53:43.431Z,90.60
2018-01-21T11:55:06.744Z,90.91
2018-01-21T11:56:34.059Z,90.87
2018-01-21T11:58:05.328Z,90.42
2018-01-21T11:59:32.369Z,90.33
2018-01-21T12:00:59.398Z,90.64
2018-01-21T12:02:26.445Z,90.84
2018-01-21T12:03:53.347Z,90.52
2018-01-21T12:05:16.843Z,89.55
2018-01-21T12:06:43.697Z,89.52
2018-01-21T12:08:10.811Z,90.18
2018-01-21T12:09:42.065Z,90.94
2018-01-21T12:11:05.202Z,90.68
2018-01-21T12:12:32.190Z,90.42
2018-01-21T12:13:59.445Z,90.79
2018-01-21T12:15:30.604Z,91.17
2018-01-21T12:16:53.896Z,90.72
2018-01-21T12:18:21.126Z,90.83
2018-01-21T12:19:52.408Z,91.13
2018-01-21T12:21:19.601Z,90.96
2018-01-21T12:22:46.823Z,91.15
2018-01-21T12:24:13.937Z,90.51
2018-01-21T12:25:37.045Z,90.40
2018-01-21T12:27:08.155Z,90.77
2018-01-21T12:28:31.306Z,90.82
2018-01-21T12:30:02.537Z,90.62
2018-01-21T12:31:29.686Z,91.30
2018-01-21T12:32:52.908Z,90.88
2018-01-21T12:34:24.021Z,91.59
2018-01-21T12:35:51.096Z,91.59
2018-01-21T12:37:14.255Z,91.38
2018-01-21T12:38:45.416Z,91.36
2018-01-21T12:40:08.429Z,91.30
2018-01-21T12:41:35.701Z,91.11
2018-01-21T12:43:06.753Z,90.76
2018-01-21T12:44:33.846Z,89.78
2018-01-21T12:46:01.065Z,90.23
2018-01-21T12:47:23.925Z,90.87
2018-01-21T12:48:55.223Z,90.75
2018-01-21T12:50:18.346Z,90.67
2018-01-21T12:51:45.640Z,89.84
2018-01-21T12:53:12.755Z,90.48
2018-01-21T12:54:39.933Z,90.70
2018-01-21T12:56:07.205Z,90.00
2018-01-21T12:57:34.451Z,90.73
2018-01-21T12:59:05.547Z,91.03
2018-01-21T13:00:28.613Z,90.97
2018-01-21T13:01:55.725Z,90.79
2018-01-21T13:03:23.021Z,90.39
2018-01-21T13:04:54.171Z,90.15
2018-01-21T13:06:17.470Z,90.24
2018-01-21T13:07:44.763Z,90.32
2018-01-21T13:09:12.005Z,90.00
2018-01-21T13:10:39.230Z,90.89
2018-01-21T13:12:06.476Z,91.59
2018-01-21T13:13:33.627Z,91.63
2018-01-21T13:15:04.913Z,91.65
2018-01-21T13:16:32.004Z,91.66
2018-01-21T13:17:55.251Z,91.20
2018-01-21T13:19:26.569Z,90.83
2018-01-21T13:20:53.650Z,91.55
2018-01-21T13:22:16.949Z,91.65
2018-01-21T13:23:48.120Z,91.55
2018-01-21T13:25:15.124Z,91.31
2018-01-21T13:26:42.417Z,91.03
2018-01-21T13:28:05.523Z,90.80
2018-01-21T13:29:36.653Z,91.08
2018-01-21T13:31:03.868Z,91.26
2018-01-21T13:32:26.926Z,91.19
2018-01-21T13:33:57.857Z,91.53
2018-01-21T13:35:20.724Z,91.32
2018-01-21T13:36:51.833Z,91.60
2018-01-21T13:38:15.122Z,91.89
2018-01-21T13:39:46.342Z,91.89
2018-01-21T13:41:13.541Z,91.90
2018-01-21T13:42:36.735Z,92.29
2018-01-21T13:44:08.056Z,92.44
2018-01-21T13:45:35.021Z,92.37
2018-01-21T13:47:02.185Z,92.25
2018-01-21T13:48:29.351Z,92.26
2018-01-21T13:49:52.442Z,92.21
2018-01-21T13:51:23.559Z,92.23
2018-01-21T13:52:50.775Z,92.01
2018-01-21T13:54:18.040Z,92.00
2018-01-21T13:55:41.324Z,92.10
2018-01-21T13:57:08.481Z,92.09
2018-01-21T13:58:35.618Z,91.96
2018-01-21T14:00:02.581Z,91.73
2018-01-21T14:01:29.838Z,92.01
2018-01-21T14:02:57.094Z,91.73
2018-01-21T14:04:27.991Z,91.38
2018-01-21T14:05:55.246Z,91.53
2018-01-21T14:07:22.693Z,91.61
2018-01-21T14:08:45.692Z,91.95
2018-01-21T14:10:16.804Z,92.27
2018-01-21T14:11:44.053Z,92.99
2018-01-21T14:13:07.504Z,93.25
2018-01-21T14:14:38.277Z,92.87
2018-01-21T14:16:01.503Z,92.92
2018-01-21T14:17:32.502Z,92.89
2018-01-21T14:18:55.504Z,92.67
2018-01-21T14:20:22.670Z,92.37
2018-01-21T14:21:49.800Z,93.16
2018-01-21T14:23:21.075Z,93.40
2018-01-21T14:24:44.369Z,93.67
2018-01-21T14:26:15.714Z,93.50
2018-01-21T14:27:42.786Z,93.81
2018-01-21T14:29:09.813Z,93.21
2018-01-21T14:30:33.206Z,93.44
2018-01-21T14:32:04.224Z,93.52
2018-01-21T14:33:27.230Z,93.53
2018-01-21T14:34:58.272Z,94.00
2018-01-21T14:36:21.245Z,94.38
2018-01-21T14:37:48.505Z,94.47
2018-01-21T14:39:15.834Z,94.00
2018-01-21T14:40:47.017Z,93.91
2018-01-21T14:42:10.190Z,94.19
2018-01-21T14:43:37.414Z,94.23
2018-01-21T14:45:04.539Z,94.22
2018-01-21T14:46:35.717Z,94.14
2018-01-21T14:48:02.877Z,94.00
2018-01-21T14:49:26.129Z,93.61
2018-01-21T14:50:57.086Z,93.91
2018-01-21T14:52:20.397Z,93.71
2018-01-21T14:53:51.564Z,93.83
2018-01-21T14:55:14.879Z,93.70
2018-01-21T14:56:42.076Z,93.80
2018-01-21T14:58:09.192Z,93.84
2018-01-21T14:59:36.406Z,93.81
2018-01-21T15:01:03.425Z,93.67
2018-01-21T15:02:34.705Z,93.89
2018-01-21T15:04:01.817Z,93.94
2018-01-21T15:05:24.920Z,94.33
2018-01-21T15:06:52.201Z,94.67
2018-01-21T15:08:22.842Z,94.80
2018-01-21T15:09:46.144Z,95.24
2018-01-21T15:11:17.171Z,95.88
2018-01-21T15:12:40.364Z,96.42
2018-01-21T15:14:11.486Z,96.16
2018-01-21T15:15:34.695Z,96.27
2018-01-21T15:17:01.804Z,96.28
2018-01-21T15:18:32.926Z,96.10
2018-01-21T15:19:56.037Z,96.00
2018-01-21T15:21:26.937Z,96.22
2018-01-21T15:22:54.078Z,96.08
2018-01-21T15:24:17.245Z,96.39
2018-01-21T15:25:48.379Z,96.41
2018-01-21T15:27:15.075Z,96.32
2018-01-21T15:28:38.350Z,96.53
2018-01-21T15:30:05.570Z,96.61
2018-01-21T15:31:36.809Z,96.95
2018-01-21T15:33:00.017Z,97.05
2018-01-21T15:34:27.190Z,97.13
2018-01-21T15:35:58.191Z,97.05
2018-01-21T15:37:21.346Z,97.29
2018-01-21T15:38:52.469Z,97.41
2018-01-21T15:40:19.504Z,97.27
2018-01-21T15:41:42.728Z,97.28
2018-01-21T15:43:09.883Z,97.29
2018-01-21T15:44:37.066Z,97.46
2018-01-21T15:46:04.113Z,97.41
2018-01-21T15:47:35.107Z,97.19
2018-01-21T15:48:58.159Z,97.61
2018-01-21T15:50:25.072Z,97.78
2018-01-21T15:51:56.079Z,97.88
2018-01-21T15:53:19.354Z,97.70
2018-01-21T15:54:46.501Z,97.89
2018-01-21T15:56:13.799Z,97.81
2018-01-21T15:57:40.891Z,97.29
2018-01-21T15:59:08.094Z,97.35
2018-01-21T16:00:35.268Z,97.52
2018-01-21T16:02:02.360Z,97.29
2018-01-21T16:03:29.469Z,97.56
2018-01-21T16:04:56.468Z,97.51
2018-01-21T16:06:23.546Z,97.26
2018-01-21T16:07:50.787Z,96.60
2018-01-21T16:09:18.046Z,97.10
2018-01-21T16:10:49.243Z,97.16
2018-01-21T16:12:12.507Z,97.15
2018-01-21T16:13:39.396Z,97.28
2018-01-21T16:15:10.436Z,97.34
2018-01-21T16:16:37.475Z,97.29
2018-01-21T16:18:00.649Z,97.25
2018-01-21T16:19:27.938Z,97.47
2018-01-21T16:20:59.077Z,97.76
2018-01-21T16:22:26.306Z,98.06
2018-01-21T16:23:49.210Z,98.15
2018-01-21T16:25:20.370Z,98.43
2018-01-21T16:26:43.756Z,98.66
2018-01-21T16:28:14.756Z,98.62
2018-01-21T16:29:41.885Z,98.59
2018-01-21T16:31:08.962Z,98.55
2018-01-21T16:32:31.886Z,98.31
2018-01-21T16:34:02.919Z,98.65
2018-01-21T16:35:25.854Z,98.62
2018-01-21T16:36:52.866Z,98.55
2018-01-21T16:38:20.229Z,98.42
2018-01-21T16:39:47.341Z,98.44
2018-01-21T16:41:14.422Z,98.75
2018-01-21T16:42:40.995Z,99.07
2018-01-21T16:44:12.208Z,98.94
2018-01-21T16:45:35.261Z,98.83
2018-01-21T16:47:02.257Z,98.80
2018-01-21T16:48:33.436Z,98.77
2018-01-21T16:49:59.809Z,98.47
2018-01-21T16:51:27.149Z,98.48
2018-01-21T16:52:50.524Z,98.75
2018-01-21T16:54:17.566Z,98.79
2018-01-21T16:55:48.733Z,98.41
2018-01-21T16:57:15.974Z,98.16
2018-01-21T16:58:39.138Z,98.31
2018-01-21T17:00:06.287Z,98.51
2018-01-21T17:01:37.367Z,98.61
2018-01-21T17:03:04.150Z,98.38
2018-01-21T17:04:27.054Z,98.53
2018-01-21T17:05:57.978Z,98.81
2018-01-21T17:07:20.929Z,98.56
2018-01-21T17:08:52.094Z,98.42
2018-01-21T17:10:15.270Z,98.47
2018-01-21T17:11:46.515Z,98.35
2018-01-21T17:13:09.298Z,97.66
2018-01-21T17:14:36.444Z,96.83
2018-01-21T17:16:07.752Z,97.41
2018-01-21T17:17:30.674Z,97.51
2018-01-21T17:19:01.798Z,96.32
2018-01-21T17:20:24.815Z,96.36
2018-01-21T17:21:52.140Z,97.04
2018-01-21T17:23:23.191Z,96.96
2018-01-21T17:24:46.467Z,96.77
2018-01-21T17:26:13.612Z,96.39
2018-01-21T17:27:40.803Z,96.82
2018-01-21T17:29:07.987Z,97.23
2018-01-21T17:30:39.075Z,97.30
2018-01-21T17:32:02.304Z,97.19
2018-01-21T17:33:29.609Z,96.96
2018-01-21T17:35:00.764Z,95.82
2018-01-21T17:36:23.828Z,95.48
2018-01-21T17:37:50.973Z,96.06
2018-01-21T17:39:18.082Z,96.36
2018-01-21T17:40:45.263Z,97.29
2018-01-21T17:42:12.673Z,96.95
2018-01-21T17:43:43.759Z,97.28
2018-01-21T17:45:06.848Z,97.23
2018-01-21T17:46:34.072Z,96.71
2018-01-21T17:48:05.075Z,95.99
2018-01-21T17:49:31.965Z,95.45
2018-01-21T17:50:58.752Z,95.27
2018-01-21T17:52:21.807Z,95.24
2018-01-21T17:53:52.791Z,94.30
2018-01-21T17:55:19.974Z,94.33
2018-01-21T17:56:47.105Z,95.39
2018-01-21T17:58:14.063Z,95.43
2018-01-21T17:59:37.168Z,95.21
2018-01-21T18:01:08.479Z,95.21
2018-01-21T18:02:31.611Z,94.65
2018-01-21T18:03:58.489Z,94.51
2018-01-21T18:05:29.240Z,94.07
2018-01-21T18:06:52.357Z,93.62
2018-01-21T18:08:23.310Z,93.03
2018-01-21T18:09:46.114Z,92.54
2018-01-21T18:11:13.167Z,92.58
2018-01-21T18:12:44.335Z,92.42
2018-01-21T18:14:11.379Z,92.98
2018-01-21T18:15:38.539Z,93.11
2018-01-21T18:17:05.708Z,93.70
2018-01-21T18:18:32.925Z,93.95
2018-01-21T18:19:55.765Z,94.91
2018-01-21T18:21:26.876Z,94.91
2018-01-21T18:22:54.049Z,95.14
2018-01-21T18:24:17.330Z,95.08
2018-01-21T18:25:44.550Z,94.75
2018-01-21T18:27:11.830Z,94.39
2018-01-21T18:28:39.041Z,93.99
2018-01-21T18:30:10.144Z,93.43
2018-01-21T18:31:33.164Z,92.98
2018-01-21T18:33:04.153Z,92.68
2018-01-21T18:34:31.165Z,91.94
2018-01-21T18:35:58.162Z,93.14
2018-01-21T18:37:25.306Z,93.51
2018-01-21T18:38:48.128Z,93.26
2018-01-21T18:40:15.276Z,93.47
2018-01-21T18:41:46.465Z,92.56
2018-01-21T18:43:09.748Z,93.32